sensor_id;sensor_type;location;lat;lon;timestamp;P1;durP1;ratioP1;P2;durP2;ratioP2
81807;SDS011;71241;13.676;100.700;2024-01-15T00:01:27;28.95;;;22.55;;
81807;SDS011;71241;13.676;100.700;2024-01-15T00:04:00;29.80;;;19.58;;
81807;SDS011;71241;13.676;100.700;2024-01-15T00:06:31;28.00;;;18.08;;
81807;SDS011;71241;13.676;100.700;2024-01-15T00:09:07;24.17;;;18.73;;
81807;SDS011;71241;13.676;100.700;2024-01-15T00:11:37;26.60;;;19.23;;
81807;SDS011;71241;13.676;100.700;2024-01-15T00:14:08;24.27;;;17.50;;
81807;SDS011;71241;13.676;100.700;2024-01-15T00:16:47;24.65;;;16.15;;
81807;SDS011;71241;13.676;100.700;2024-01-15T00:19:27;23.38;;;17.58;;
81807;SDS011;71241;13.676;100.700;2024-01-15T00:22:10;23.58;;;17.00;;
81807;SDS011;71241;13.676;100.700;2024-01-15T00:24:49;23.83;;;19.83;;
81807;SDS011;71241;13.676;100.700;2024-01-15T00:27:19;25.58;;;17.77;;
81807;SDS011;71241;13.676;100.700;2024-01-15T00:29:53;25.88;;;15.88;;
81807;SDS011;71241;13.676;100.700;2024-01-15T00:32:25;23.05;;;20.65;;
81807;SDS011;71241;13.676;100.700;2024-01-15T00:35:00;22.40;;;15.32;;
81807;SDS011;71241;13.676;100.700;2024-01-15T00:37:32;23.70;;;16.02;;
81807;SDS011;71241;13.676;100.700;2024-01-15T00:40:03;24.85;;;15.73;;
81807;SDS011;71241;13.676;100.700;2024-01-15T00:42:34;24.60;;;15.95;;
81807;SDS011;71241;13.676;100.700;2024-01-15T00:45:05;22.45;;;14.68;;
81807;SDS011;71241;13.676;100.700;2024-01-15T00:47:38;25.25;;;17.60;;
81807;SDS011;71241;13.676;100.700;2024-01-15T00:50:09;22.73;;;15.45;;
81807;SDS011;71241;13.676;100.700;2024-01-15T00:52:48;23.30;;;15.77;;
81807;SDS011;71241;13.676;100.700;2024-01-15T00:55:19;26.00;;;19.15;;
81807;SDS011;71241;13.676;100.700;2024-01-15T00:57:52;26.52;;;15.23;;
81807;SDS011;71241;13.676;100.700;2024-01-15T01:00:22;28.30;;;15.60;;
81807;SDS011;71241;13.676;100.700;2024-01-15T01:02:54;19.92;;;15.93;;
81807;SDS011;71241;13.676;100.700;2024-01-15T01:05:25;17.40;;;13.40;;
81807;SDS011;71241;13.676;100.700;2024-01-15T01:07:55;20.77;;;14.43;;
81807;SDS011;71241;13.676;100.700;2024-01-15T01:10:26;18.15;;;13.75;;
81807;SDS011;71241;13.676;100.700;2024-01-15T01:12:56;22.23;;;13.98;;
81807;SDS011;71241;13.676;100.700;2024-01-15T01:15:27;19.27;;;13.10;;
81807;SDS011;71241;13.676;100.700;2024-01-15T01:17:59;15.95;;;12.30;;
81807;SDS011;71241;13.676;100.700;2024-01-15T01:20:33;17.70;;;11.15;;
81807;SDS011;71241;13.676;100.700;2024-01-15T01:23:04;15.07;;;11.55;;
81807;SDS011;71241;13.676;100.700;2024-01-15T01:25:34;17.30;;;11.45;;
81807;SDS011;71241;13.676;100.700;2024-01-15T01:28:05;18.02;;;11.60;;
81807;SDS011;71241;13.676;100.700;2024-01-15T01:30:35;14.93;;;10.15;;
81807;SDS011;71241;13.676;100.700;2024-01-15T01:33:08;14.45;;;10.60;;
81807;SDS011;71241;13.676;100.700;2024-01-15T01:35:38;15.02;;;9.50;;
81807;SDS011;71241;13.676;100.700;2024-01-15T01:38:09;14.27;;;9.85;;
81807;SDS011;71241;13.676;100.700;2024-01-15T01:40:42;17.80;;;12.00;;
81807;SDS011;71241;13.676;100.700;2024-01-15T01:43:13;24.42;;;12.27;;
81807;SDS011;71241;13.676;100.700;2024-01-15T01:45:43;14.88;;;10.23;;
81807;SDS011;71241;13.676;100.700;2024-01-15T01:48:16;16.77;;;10.75;;
81807;SDS011;71241;13.676;100.700;2024-01-15T01:50:46;15.50;;;9.30;;
81807;SDS011;71241;13.676;100.700;2024-01-15T01:53:17;12.52;;;9.32;;
81807;SDS011;71241;13.676;100.700;2024-01-15T01:55:47;11.77;;;9.00;;
81807;SDS011;71241;13.676;100.700;2024-01-15T01:58:18;16.55;;;10.35;;
81807;SDS011;71241;13.676;100.700;2024-01-15T02:00:49;11.85;;;8.38;;
81807;SDS011;71241;13.676;100.700;2024-01-15T02:03:21;15.65;;;8.73;;
81807;SDS011;71241;13.676;100.700;2024-01-15T02:05:52;13.77;;;8.98;;
81807;SDS011;71241;13.676;100.700;2024-01-15T02:08:22;12.15;;;7.90;;
81807;SDS011;71241;13.676;100.700;2024-01-15T02:10:53;12.18;;;7.97;;
81807;SDS011;71241;13.676;100.700;2024-01-15T02:13:23;10.77;;;7.35;;
81807;SDS011;71241;13.676;100.700;2024-01-15T02:15:54;11.13;;;7.88;;
81807;SDS011;71241;13.676;100.700;2024-01-15T02:18:26;13.02;;;9.85;;
81807;SDS011;71241;13.676;100.700;2024-01-15T02:21:01;17.92;;;8.73;;
81807;SDS011;71241;13.676;100.700;2024-01-15T02:23:33;12.93;;;9.95;;
81807;SDS011;71241;13.676;100.700;2024-01-15T02:26:07;13.85;;;10.15;;
81807;SDS011;71241;13.676;100.700;2024-01-15T02:28:40;15.50;;;10.27;;
81807;SDS011;71241;13.676;100.700;2024-01-15T02:31:10;13.35;;;8.20;;
81807;SDS011;71241;13.676;100.700;2024-01-15T02:33:41;14.43;;;7.70;;
81807;SDS011;71241;13.676;100.700;2024-01-15T02:36:12;10.48;;;8.50;;
81807;SDS011;71241;13.676;100.700;2024-01-15T02:38:44;13.15;;;11.77;;
81807;SDS011;71241;13.676;100.700;2024-01-15T02:41:15;11.85;;;7.70;;
81807;SDS011;71241;13.676;100.700;2024-01-15T02:43:46;12.73;;;7.35;;
81807;SDS011;71241;13.676;100.700;2024-01-15T02:46:16;13.10;;;7.20;;
81807;SDS011;71241;13.676;100.700;2024-01-15T02:48:47;10.38;;;6.63;;
81807;SDS011;71241;13.676;100.700;2024-01-15T02:51:20;12.05;;;6.72;;
81807;SDS011;71241;13.676;100.700;2024-01-15T02:53:52;8.68;;;6.88;;
81807;SDS011;71241;13.676;100.700;2024-01-15T02:56:23;9.60;;;6.97;;
81807;SDS011;71241;13.676;100.700;2024-01-15T02:58:53;9.85;;;7.80;;
81807;SDS011;71241;13.676;100.700;2024-01-15T03:01:24;9.90;;;8.90;;
81807;SDS011;71241;13.676;100.700;2024-01-15T03:03:54;10.63;;;6.68;;
81807;SDS011;71241;13.676;100.700;2024-01-15T03:06:26;10.52;;;6.50;;
81807;SDS011;71241;13.676;100.700;2024-01-15T03:08:58;12.07;;;6.90;;
81807;SDS011;71241;13.676;100.700;2024-01-15T03:11:29;15.35;;;8.02;;
81807;SDS011;71241;13.676;100.700;2024-01-15T03:13:59;9.20;;;7.18;;
81807;SDS011;71241;13.676;100.700;2024-01-15T03:16:30;15.05;;;10.02;;
81807;SDS011;71241;13.676;100.700;2024-01-15T03:19:01;12.93;;;9.48;;
81807;SDS011;71241;13.676;100.700;2024-01-15T03:21:34;10.88;;;7.28;;
81807;SDS011;71241;13.676;100.700;2024-01-15T03:24:06;13.02;;;7.35;;
81807;SDS011;71241;13.676;100.700;2024-01-15T03:26:37;14.07;;;8.02;;
81807;SDS011;71241;13.676;100.700;2024-01-15T03:29:07;14.88;;;7.88;;
81807;SDS011;71241;13.676;100.700;2024-01-15T03:31:38;9.13;;;7.15;;
81807;SDS011;71241;13.676;100.700;2024-01-15T03:34:09;12.23;;;7.68;;
81807;SDS011;71241;13.676;100.700;2024-01-15T03:36:39;8.30;;;7.00;;
81807;SDS011;71241;13.676;100.700;2024-01-15T03:39:12;16.95;;;13.40;;
81807;SDS011;71241;13.676;100.700;2024-01-15T03:41:42;8.60;;;7.57;;
81807;SDS011;71241;13.676;100.700;2024-01-15T03:44:13;16.25;;;8.18;;
81807;SDS011;71241;13.676;100.700;2024-01-15T03:46:43;14.05;;;8.63;;
81807;SDS011;71241;13.676;100.700;2024-01-15T03:49:14;14.18;;;8.30;;
81807;SDS011;71241;13.676;100.700;2024-01-15T03:51:45;15.80;;;8.13;;
81807;SDS011;71241;13.676;100.700;2024-01-15T03:54:17;11.75;;;7.85;;
81807;SDS011;71241;13.676;100.700;2024-01-15T03:56:48;12.93;;;7.95;;
81807;SDS011;71241;13.676;100.700;2024-01-15T03:59:18;11.93;;;7.38;;
81807;SDS011;71241;13.676;100.700;2024-01-15T04:01:49;12.98;;;8.40;;
81807;SDS011;71241;13.676;100.700;2024-01-15T04:04:20;12.48;;;7.63;;
81807;SDS011;71241;13.676;100.700;2024-01-15T04:06:50;13.02;;;8.02;;
81807;SDS011;71241;13.676;100.700;2024-01-15T04:09:23;11.70;;;6.72;;
81807;SDS011;71241;13.676;100.700;2024-01-15T04:11:53;11.75;;;6.63;;
81807;SDS011;71241;13.676;100.700;2024-01-15T04:14:24;10.63;;;6.07;;
81807;SDS011;71241;13.676;100.700;2024-01-15T04:16:54;10.57;;;6.60;;
81807;SDS011;71241;13.676;100.700;2024-01-15T04:19:25;7.55;;;5.97;;
81807;SDS011;71241;13.676;100.700;2024-01-15T04:21:59;8.48;;;6.53;;
81807;SDS011;71241;13.676;100.700;2024-01-15T04:24:33;11.23;;;6.68;;
81807;SDS011;71241;13.676;100.700;2024-01-15T04:27:04;9.45;;;6.35;;
81807;SDS011;71241;13.676;100.700;2024-01-15T04:29:35;11.25;;;6.72;;
81807;SDS011;71241;13.676;100.700;2024-01-15T04:32:08;9.38;;;6.90;;
81807;SDS011;71241;13.676;100.700;2024-01-15T04:34:39;9.52;;;7.03;;
81807;SDS011;71241;13.676;100.700;2024-01-15T04:37:09;14.82;;;6.82;;
81807;SDS011;71241;13.676;100.700;2024-01-15T04:39:41;8.68;;;6.28;;
81807;SDS011;71241;13.676;100.700;2024-01-15T04:42:12;9.80;;;7.20;;
81807;SDS011;71241;13.676;100.700;2024-01-15T04:44:43;11.85;;;6.82;;
81807;SDS011;71241;13.676;100.700;2024-01-15T04:47:16;11.88;;;7.53;;
81807;SDS011;71241;13.676;100.700;2024-01-15T04:49:47;9.88;;;6.38;;
81807;SDS011;71241;13.676;100.700;2024-01-15T04:52:18;10.45;;;7.60;;
81807;SDS011;71241;13.676;100.700;2024-01-15T04:54:50;10.57;;;7.82;;
81807;SDS011;71241;13.676;100.700;2024-01-15T04:57:21;9.35;;;7.60;;
81807;SDS011;71241;13.676;100.700;2024-01-15T04:59:53;14.05;;;7.40;;
81807;SDS011;71241;13.676;100.700;2024-01-15T05:02:24;10.98;;;6.78;;
81807;SDS011;71241;13.676;100.700;2024-01-15T05:04:54;11.68;;;6.90;;
81807;SDS011;71241;13.676;100.700;2024-01-15T05:07:25;11.43;;;7.20;;
81807;SDS011;71241;13.676;100.700;2024-01-15T05:09:57;8.48;;;6.63;;
81807;SDS011;71241;13.676;100.700;2024-01-15T05:12:28;10.95;;;7.25;;
81807;SDS011;71241;13.676;100.700;2024-01-15T05:14:58;11.07;;;7.05;;
81807;SDS011;71241;13.676;100.700;2024-01-15T05:17:29;12.50;;;8.23;;
81807;SDS011;71241;13.676;100.700;2024-01-15T05:20:00;11.55;;;7.18;;
81807;SDS011;71241;13.676;100.700;2024-01-15T05:22:33;12.30;;;6.72;;
81807;SDS011;71241;13.676;100.700;2024-01-15T05:25:05;8.95;;;6.70;;
81807;SDS011;71241;13.676;100.700;2024-01-15T05:27:36;11.02;;;10.00;;
81807;SDS011;71241;13.676;100.700;2024-01-15T05:30:07;12.18;;;5.97;;
81807;SDS011;71241;13.676;100.700;2024-01-15T05:32:38;10.77;;;9.68;;
81807;SDS011;71241;13.676;100.700;2024-01-15T05:35:09;11.02;;;9.85;;
81807;SDS011;71241;13.676;100.700;2024-01-15T05:37:41;11.73;;;10.38;;
81807;SDS011;71241;13.676;100.700;2024-01-15T05:40:15;9.88;;;8.45;;
81807;SDS011;71241;13.676;100.700;2024-01-15T05:42:45;8.93;;;7.40;;
81807;SDS011;71241;13.676;100.700;2024-01-15T05:45:16;11.32;;;7.05;;
81807;SDS011;71241;13.676;100.700;2024-01-15T05:47:47;9.48;;;7.97;;
81807;SDS011;71241;13.676;100.700;2024-01-15T05:50:17;9.18;;;6.72;;
81807;SDS011;71241;13.676;100.700;2024-01-15T05:52:48;9.45;;;6.70;;
81807;SDS011;71241;13.676;100.700;2024-01-15T05:55:20;12.15;;;7.63;;
81807;SDS011;71241;13.676;100.700;2024-01-15T05:57:50;7.60;;;6.78;;
81807;SDS011;71241;13.676;100.700;2024-01-15T06:00:21;12.00;;;7.15;;
81807;SDS011;71241;13.676;100.700;2024-01-15T06:02:51;9.48;;;8.48;;
81807;SDS011;71241;13.676;100.700;2024-01-15T06:05:22;9.20;;;7.80;;
81807;SDS011;71241;13.676;100.700;2024-01-15T06:07:52;16.92;;;14.38;;
81807;SDS011;71241;13.676;100.700;2024-01-15T06:10:24;15.02;;;12.50;;
81807;SDS011;71241;13.676;100.700;2024-01-15T06:12:56;11.20;;;6.90;;
81807;SDS011;71241;13.676;100.700;2024-01-15T06:15:26;8.63;;;7.32;;
81807;SDS011;71241;13.676;100.700;2024-01-15T06:17:57;11.50;;;10.32;;
81807;SDS011;71241;13.676;100.700;2024-01-15T06:20:27;11.82;;;7.50;;
81807;SDS011;71241;13.676;100.700;2024-01-15T06:23:01;12.50;;;6.82;;
81807;SDS011;71241;13.676;100.700;2024-01-15T06:25:34;9.93;;;7.25;;
81807;SDS011;71241;13.676;100.700;2024-01-15T06:28:04;11.43;;;8.18;;
81807;SDS011;71241;13.676;100.700;2024-01-15T06:30:35;14.30;;;8.32;;
81807;SDS011;71241;13.676;100.700;2024-01-15T06:33:05;10.52;;;7.38;;
81807;SDS011;71241;13.676;100.700;2024-01-15T06:35:39;9.98;;;8.15;;
81807;SDS011;71241;13.676;100.700;2024-01-15T06:38:09;9.40;;;7.35;;
81807;SDS011;71241;13.676;100.700;2024-01-15T06:40:41;11.32;;;8.02;;
81807;SDS011;71241;13.676;100.700;2024-01-15T06:43:20;12.48;;;7.78;;
81807;SDS011;71241;13.676;100.700;2024-01-15T06:45:51;9.13;;;7.97;;
81807;SDS011;71241;13.676;100.700;2024-01-15T06:48:21;10.82;;;7.22;;
81807;SDS011;71241;13.676;100.700;2024-01-15T06:50:52;12.40;;;8.18;;
81807;SDS011;71241;13.676;100.700;2024-01-15T06:53:25;11.75;;;8.20;;
81807;SDS011;71241;13.676;100.700;2024-01-15T06:55:58;12.07;;;8.43;;
81807;SDS011;71241;13.676;100.700;2024-01-15T06:58:28;11.02;;;8.48;;
81807;SDS011;71241;13.676;100.700;2024-01-15T07:01:03;11.50;;;9.38;;
81807;SDS011;71241;13.676;100.700;2024-01-15T07:03:34;10.18;;;8.48;;
81807;SDS011;71241;13.676;100.700;2024-01-15T07:06:07;8.15;;;7.35;;
81807;SDS011;71241;13.676;100.700;2024-01-15T07:08:38;9.65;;;7.30;;
81807;SDS011;71241;13.676;100.700;2024-01-15T07:11:13;10.98;;;8.32;;
81807;SDS011;71241;13.676;100.700;2024-01-15T07:13:48;11.02;;;10.00;;
81807;SDS011;71241;13.676;100.700;2024-01-15T07:16:19;10.35;;;7.82;;
81807;SDS011;71241;13.676;100.700;2024-01-15T07:19:04;10.38;;;9.40;;
81807;SDS011;71241;13.676;100.700;2024-01-15T07:21:37;8.77;;;7.30;;
81807;SDS011;71241;13.676;100.700;2024-01-15T07:24:09;11.27;;;8.48;;
81807;SDS011;71241;13.676;100.700;2024-01-15T07:26:41;10.75;;;7.90;;
81807;SDS011;71241;13.676;100.700;2024-01-15T07:29:15;10.07;;;8.52;;
81807;SDS011;71241;13.676;100.700;2024-01-15T07:31:47;9.18;;;7.80;;
81807;SDS011;71241;13.676;100.700;2024-01-15T07:34:19;10.13;;;7.85;;
81807;SDS011;71241;13.676;100.700;2024-01-15T07:36:51;9.93;;;8.48;;
81807;SDS011;71241;13.676;100.700;2024-01-15T07:39:25;10.85;;;8.27;;
81807;SDS011;71241;13.676;100.700;2024-01-15T07:42:01;10.20;;;8.13;;
81807;SDS011;71241;13.676;100.700;2024-01-15T07:44:32;9.80;;;8.10;;
81807;SDS011;71241;13.676;100.700;2024-01-15T07:47:03;8.52;;;6.55;;
81807;SDS011;71241;13.676;100.700;2024-01-15T07:49:33;9.98;;;7.93;;
81807;SDS011;71241;13.676;100.700;2024-01-15T07:52:07;7.82;;;6.05;;
81807;SDS011;71241;13.676;100.700;2024-01-15T07:54:38;10.18;;;8.95;;
81807;SDS011;71241;13.676;100.700;2024-01-15T07:57:10;9.57;;;7.47;;
81807;SDS011;71241;13.676;100.700;2024-01-15T07:59:40;10.88;;;7.68;;
81807;SDS011;71241;13.676;100.700;2024-01-15T08:02:18;10.32;;;7.20;;
81807;SDS011;71241;13.676;100.700;2024-01-15T08:04:48;11.93;;;7.63;;
81807;SDS011;71241;13.676;100.700;2024-01-15T08:07:19;9.23;;;8.23;;
81807;SDS011;71241;13.676;100.700;2024-01-15T08:09:52;8.05;;;7.25;;
81807;SDS011;71241;13.676;100.700;2024-01-15T08:12:25;8.00;;;7.20;;
81807;SDS011;71241;13.676;100.700;2024-01-15T08:14:55;10.73;;;7.72;;
81807;SDS011;71241;13.676;100.700;2024-01-15T08:17:26;9.13;;;7.80;;
81807;SDS011;71241;13.676;100.700;2024-01-15T08:20:01;12.05;;;10.95;;
81807;SDS011;71241;13.676;100.700;2024-01-15T08:22:35;12.68;;;11.60;;
81807;SDS011;71241;13.676;100.700;2024-01-15T08:25:08;13.68;;;11.23;;
81807;SDS011;71241;13.676;100.700;2024-01-15T08:27:43;10.30;;;9.38;;
81807;SDS011;71241;13.676;100.700;2024-01-15T08:30:17;15.85;;;10.10;;
81807;SDS011;71241;13.676;100.700;2024-01-15T08:32:49;9.93;;;7.47;;
81807;SDS011;71241;13.676;100.700;2024-01-15T08:35:20;11.30;;;7.75;;
81807;SDS011;71241;13.676;100.700;2024-01-15T08:37:52;10.15;;;8.52;;
81807;SDS011;71241;13.676;100.700;2024-01-15T08:40:22;10.90;;;9.60;;
81807;SDS011;71241;13.676;100.700;2024-01-15T08:42:54;11.60;;;9.13;;
81807;SDS011;71241;13.676;100.700;2024-01-15T08:45:25;10.57;;;8.38;;
81807;SDS011;71241;13.676;100.700;2024-01-15T08:47:58;9.32;;;8.40;;
81807;SDS011;71241;13.676;100.700;2024-01-15T08:50:30;11.05;;;8.18;;
81807;SDS011;71241;13.676;100.700;2024-01-15T08:53:01;10.20;;;8.23;;
81807;SDS011;71241;13.676;100.700;2024-01-15T08:55:33;13.57;;;9.18;;
81807;SDS011;71241;13.676;100.700;2024-01-15T08:58:05;11.82;;;9.85;;
81807;SDS011;71241;13.676;100.700;2024-01-15T09:00:35;10.55;;;7.93;;
81807;SDS011;71241;13.676;100.700;2024-01-15T09:03:08;8.63;;;6.85;;
81807;SDS011;71241;13.676;100.700;2024-01-15T09:05:39;11.40;;;7.65;;
81807;SDS011;71241;13.676;100.700;2024-01-15T09:08:11;9.50;;;7.35;;
81807;SDS011;71241;13.676;100.700;2024-01-15T09:10:42;10.50;;;6.90;;
81807;SDS011;71241;13.676;100.700;2024-01-15T09:13:14;11.73;;;7.05;;
81807;SDS011;71241;13.676;100.700;2024-01-15T09:15:45;10.38;;;7.18;;
81807;SDS011;71241;13.676;100.700;2024-01-15T09:18:16;8.18;;;7.00;;
81807;SDS011;71241;13.676;100.700;2024-01-15T09:20:46;8.73;;;6.63;;
81807;SDS011;71241;13.676;100.700;2024-01-15T09:23:21;8.35;;;6.65;;
81807;SDS011;71241;13.676;100.700;2024-01-15T09:25:57;13.68;;;6.53;;
81807;SDS011;71241;13.676;100.700;2024-01-15T09:28:54;10.32;;;6.85;;
81807;SDS011;71241;13.676;100.700;2024-01-15T09:31:28;8.90;;;6.47;;
81807;SDS011;71241;13.676;100.700;2024-01-15T09:34:01;9.25;;;6.80;;
81807;SDS011;71241;13.676;100.700;2024-01-15T09:36:39;8.02;;;7.20;;
81807;SDS011;71241;13.676;100.700;2024-01-15T09:39:13;8.45;;;6.53;;
81807;SDS011;71241;13.676;100.700;2024-01-15T09:41:44;8.75;;;7.00;;
81807;SDS011;71241;13.676;100.700;2024-01-15T09:44:17;8.93;;;6.60;;
81807;SDS011;71241;13.676;100.700;2024-01-15T09:46:50;8.23;;;7.07;;
81807;SDS011;71241;13.676;100.700;2024-01-15T09:49:22;9.70;;;6.82;;
81807;SDS011;71241;13.676;100.700;2024-01-15T09:51:52;9.75;;;6.28;;
81807;SDS011;71241;13.676;100.700;2024-01-15T09:54:37;9.35;;;6.95;;
81807;SDS011;71241;13.676;100.700;2024-01-15T09:57:11;10.57;;;6.60;;
81807;SDS011;71241;13.676;100.700;2024-01-15T09:59:44;9.90;;;7.15;;
81807;SDS011;71241;13.676;100.700;2024-01-15T10:02:15;8.60;;;6.40;;
81807;SDS011;71241;13.676;100.700;2024-01-15T10:04:47;12.18;;;7.65;;
81807;SDS011;71241;13.676;100.700;2024-01-15T10:07:18;9.85;;;6.45;;
81807;SDS011;71241;13.676;100.700;2024-01-15T10:09:48;7.07;;;6.35;;
81807;SDS011;71241;13.676;100.700;2024-01-15T10:12:19;8.38;;;6.95;;
81807;SDS011;71241;13.676;100.700;2024-01-15T10:14:52;10.65;;;6.95;;
81807;SDS011;71241;13.676;100.700;2024-01-15T10:17:23;10.85;;;7.60;;
81807;SDS011;71241;13.676;100.700;2024-01-15T10:19:57;7.65;;;6.38;;
81807;SDS011;71241;13.676;100.700;2024-01-15T10:22:30;10.18;;;7.55;;
81807;SDS011;71241;13.676;100.700;2024-01-15T10:25:05;9.10;;;8.07;;
81807;SDS011;71241;13.676;100.700;2024-01-15T10:27:36;10.75;;;9.65;;
81807;SDS011;71241;13.676;100.700;2024-01-15T10:30:08;9.00;;;7.35;;
81807;SDS011;71241;13.676;100.700;2024-01-15T10:32:40;10.20;;;7.25;;
81807;SDS011;71241;13.676;100.700;2024-01-15T10:35:10;9.02;;;7.13;;
81807;SDS011;71241;13.676;100.700;2024-01-15T10:37:42;11.60;;;7.68;;
81807;SDS011;71241;13.676;100.700;2024-01-15T10:40:14;8.93;;;7.93;;
81807;SDS011;71241;13.676;100.700;2024-01-15T10:42:44;11.00;;;7.75;;
81807;SDS011;71241;13.676;100.700;2024-01-15T10:45:18;10.68;;;8.00;;
81807;SDS011;71241;13.676;100.700;2024-01-15T10:47:48;12.98;;;9.35;;
81807;SDS011;71241;13.676;100.700;2024-01-15T10:50:21;11.02;;;9.82;;
81807;SDS011;71241;13.676;100.700;2024-01-15T10:52:54;11.57;;;8.95;;
81807;SDS011;71241;13.676;100.700;2024-01-15T10:55:25;12.15;;;9.68;;
81807;SDS011;71241;13.676;100.700;2024-01-15T10:57:57;11.18;;;10.05;;
81807;SDS011;71241;13.676;100.700;2024-01-15T11:00:30;12.20;;;9.45;;
81807;SDS011;71241;13.676;100.700;2024-01-15T11:05:33;14.63;;;9.95;;
81807;SDS011;71241;13.676;100.700;2024-01-15T11:08:04;11.45;;;9.13;;
81807;SDS011;71241;13.676;100.700;2024-01-15T11:10:40;14.25;;;9.35;;
81807;SDS011;71241;13.676;100.700;2024-01-15T11:13:13;15.13;;;8.15;;
81807;SDS011;71241;13.676;100.700;2024-01-15T11:15:56;12.43;;;8.68;;
81807;SDS011;71241;13.676;100.700;2024-01-15T11:18:29;9.40;;;8.40;;
81807;SDS011;71241;13.676;100.700;2024-01-15T11:21:22;10.35;;;7.90;;
81807;SDS011;71241;13.676;100.700;2024-01-15T11:23:59;10.45;;;8.90;;
81807;SDS011;71241;13.676;100.700;2024-01-15T11:26:34;11.55;;;8.70;;
81807;SDS011;71241;13.676;100.700;2024-01-15T11:29:05;9.82;;;8.75;;
81807;SDS011;71241;13.676;100.700;2024-01-15T11:34:59;12.00;;;9.07;;
81807;SDS011;71241;13.676;100.700;2024-01-15T11:40:38;10.52;;;9.43;;
81807;SDS011;71241;13.676;100.700;2024-01-15T11:43:09;13.63;;;8.98;;
81807;SDS011;71241;13.676;100.700;2024-01-15T11:45:39;9.95;;;8.30;;
81807;SDS011;71241;13.676;100.700;2024-01-15T11:48:14;10.73;;;8.45;;
81807;SDS011;71241;13.676;100.700;2024-01-15T11:50:46;12.73;;;10.35;;
81807;SDS011;71241;13.676;100.700;2024-01-15T11:53:24;14.27;;;10.13;;
81807;SDS011;71241;13.676;100.700;2024-01-15T11:55:58;13.27;;;11.57;;
81807;SDS011;71241;13.676;100.700;2024-01-15T12:01:04;15.82;;;10.65;;
81807;SDS011;71241;13.676;100.700;2024-01-15T12:03:38;14.55;;;10.27;;
81807;SDS011;71241;13.676;100.700;2024-01-15T12:06:09;13.35;;;9.45;;
81807;SDS011;71241;13.676;100.700;2024-01-15T12:08:46;12.43;;;9.88;;
81807;SDS011;71241;13.676;100.700;2024-01-15T12:11:16;15.52;;;9.40;;
81807;SDS011;71241;13.676;100.700;2024-01-15T12:13:49;13.98;;;11.88;;
81807;SDS011;71241;13.676;100.700;2024-01-15T12:16:23;12.98;;;11.52;;
81807;SDS011;71241;13.676;100.700;2024-01-15T12:19:03;19.35;;;12.68;;
81807;SDS011;71241;13.676;100.700;2024-01-15T12:21:34;13.02;;;10.40;;
81807;SDS011;71241;13.676;100.700;2024-01-15T12:24:06;11.48;;;9.68;;
81807;SDS011;71241;13.676;100.700;2024-01-15T12:26:37;15.93;;;10.45;;
81807;SDS011;71241;13.676;100.700;2024-01-15T12:29:08;12.82;;;9.70;;
81807;SDS011;71241;13.676;100.700;2024-01-15T12:31:38;17.70;;;9.63;;
81807;SDS011;71241;13.676;100.700;2024-01-15T12:36:46;14.40;;;11.40;;
81807;SDS011;71241;13.676;100.700;2024-01-15T12:42:14;17.23;;;10.13;;
81807;SDS011;71241;13.676;100.700;2024-01-15T12:44:48;15.00;;;10.45;;
81807;SDS011;71241;13.676;100.700;2024-01-15T12:47:20;16.95;;;15.25;;
81807;SDS011;71241;13.676;100.700;2024-01-15T12:49:53;16.00;;;10.18;;
81807;SDS011;71241;13.676;100.700;2024-01-15T12:52:40;12.95;;;9.70;;
81807;SDS011;71241;13.676;100.700;2024-01-15T12:55:11;13.35;;;10.00;;
81807;SDS011;71241;13.676;100.700;2024-01-15T13:00:14;16.15;;;14.73;;
81807;SDS011;71241;13.676;100.700;2024-01-15T13:02:45;16.88;;;13.35;;
81807;SDS011;71241;13.676;100.700;2024-01-15T13:05:18;17.55;;;15.73;;
81807;SDS011;71241;13.676;100.700;2024-01-15T13:07:50;23.00;;;21.08;;
81807;SDS011;71241;13.676;100.700;2024-01-15T13:10:22;17.55;;;15.80;;
81807;SDS011;71241;13.676;100.700;2024-01-15T13:13:00;18.83;;;17.08;;
81807;SDS011;71241;13.676;100.700;2024-01-15T13:15:31;19.75;;;16.77;;
81807;SDS011;71241;13.676;100.700;2024-01-15T13:18:02;16.88;;;15.25;;
81807;SDS011;71241;13.676;100.700;2024-01-15T13:20:34;18.70;;;16.80;;
81807;SDS011;71241;13.676;100.700;2024-01-15T13:23:10;16.23;;;14.57;;
81807;SDS011;71241;13.676;100.700;2024-01-15T13:25:40;16.88;;;15.18;;
81807;SDS011;71241;13.676;100.700;2024-01-15T13:28:11;16.92;;;15.15;;
81807;SDS011;71241;13.676;100.700;2024-01-15T13:30:42;21.10;;;15.43;;
81807;SDS011;71241;13.676;100.700;2024-01-15T13:33:12;16.02;;;13.90;;
81807;SDS011;71241;13.676;100.700;2024-01-15T13:35:45;19.25;;;17.42;;
81807;SDS011;71241;13.676;100.700;2024-01-15T13:38:18;16.75;;;13.95;;
81807;SDS011;71241;13.676;100.700;2024-01-15T13:40:49;16.83;;;12.80;;
81807;SDS011;71241;13.676;100.700;2024-01-15T13:43:20;17.13;;;15.05;;
81807;SDS011;71241;13.676;100.700;2024-01-15T13:45:50;18.45;;;16.55;;
81807;SDS011;71241;13.676;100.700;2024-01-15T13:48:23;17.20;;;14.45;;
81807;SDS011;71241;13.676;100.700;2024-01-15T13:50:55;19.98;;;16.33;;
81807;SDS011;71241;13.676;100.700;2024-01-15T13:55:55;16.38;;;14.77;;
81807;SDS011;71241;13.676;100.700;2024-01-15T13:58:26;17.85;;;14.82;;
81807;SDS011;71241;13.676;100.700;2024-01-15T14:00:56;17.27;;;15.48;;
81807;SDS011;71241;13.676;100.700;2024-01-15T14:03:27;23.15;;;15.48;;
81807;SDS011;71241;13.676;100.700;2024-01-15T14:06:00;17.23;;;14.13;;
81807;SDS011;71241;13.676;100.700;2024-01-15T14:08:37;17.58;;;15.55;;
81807;SDS011;71241;13.676;100.700;2024-01-15T14:11:08;17.83;;;15.45;;
81807;SDS011;71241;13.676;100.700;2024-01-15T14:13:39;21.75;;;15.90;;
81807;SDS011;71241;13.676;100.700;2024-01-15T14:16:12;22.45;;;17.63;;
81807;SDS011;71241;13.676;100.700;2024-01-15T14:18:54;24.00;;;16.88;;
81807;SDS011;71241;13.676;100.700;2024-01-15T14:21:40;26.45;;;16.40;;
81807;SDS011;71241;13.676;100.700;2024-01-15T14:26:40;21.73;;;18.80;;
81807;SDS011;71241;13.676;100.700;2024-01-15T14:29:11;19.83;;;15.50;;
81807;SDS011;71241;13.676;100.700;2024-01-15T14:31:41;22.63;;;14.90;;
81807;SDS011;71241;13.676;100.700;2024-01-15T14:34:14;21.10;;;16.17;;
81807;SDS011;71241;13.676;100.700;2024-01-15T14:36:48;20.30;;;16.15;;
81807;SDS011;71241;13.676;100.700;2024-01-15T14:39:19;20.35;;;15.80;;
81807;SDS011;71241;13.676;100.700;2024-01-15T14:42:03;18.60;;;16.13;;
81807;SDS011;71241;13.676;100.700;2024-01-15T14:44:47;18.85;;;15.63;;
81807;SDS011;71241;13.676;100.700;2024-01-15T14:47:33;22.98;;;14.55;;
81807;SDS011;71241;13.676;100.700;2024-01-15T14:50:09;28.88;;;17.60;;
81807;SDS011;71241;13.676;100.700;2024-01-15T14:52:44;23.77;;;16.33;;
81807;SDS011;71241;13.676;100.700;2024-01-15T14:55:15;27.15;;;16.63;;
81807;SDS011;71241;13.676;100.700;2024-01-15T14:57:46;27.05;;;18.83;;
81807;SDS011;71241;13.676;100.700;2024-01-15T15:00:54;24.77;;;18.10;;